createdAt,value
2019-05-31T00:03:55.294Z,4.1
2019-05-31T00:20:42.788Z,4.1
2019-05-31T00:37:30.536Z,4.1
2019-05-31T00:54:18.182Z,4.1
2019-05-31T01:11:05.926Z,4.1
2019-05-31T01:27:53.600Z,4.1
2019-05-31T01:44:41.191Z,4.1
2019-05-31T02:01:28.791Z,4.1
2019-05-31T02:18:16.924Z,4.0
2019-05-31T02:35:04.118Z,4.0
2019-05-31T02:51:51.587Z,4.0
2019-05-31T03:08:39.154Z,4.0
2019-05-31T03:25:26.811Z,4.0
2019-05-31T03:42:14.675Z,4.0
2019-05-31T03:59:02.049Z,4.0
2019-05-31T04:15:49.671Z,3.9
2019-05-31T04:32:37.283Z,3.9
2019-05-31T04:49:26.715Z,3.9
2019-05-31T05:06:12.600Z,3.9
2019-05-31T05:23:00.239Z,3.9
2019-05-31T05:39:47.913Z,3.9
2019-05-31T05:56:35.534Z,4.0
2019-05-31T06:13:23.910Z,4.1
2019-05-31T06:30:10.799Z,4.2
2019-05-31T06:46:58.523Z,4.3
2019-05-31T07:03:46.911Z,4.4
2019-05-31T07:20:36.337Z,4.5
2019-05-31T07:37:31.666Z,4.5
2019-05-31T07:54:21.719Z,4.5
2019-05-31T08:11:03.386Z,4.5
2019-05-31T08:27:49.404Z,4.5
2019-05-31T08:44:37.831Z,4.6
2019-05-31T09:01:27.771Z,4.6
2019-05-31T09:18:15.945Z,4.6
2019-05-31T09:35:05.502Z,4.6
2019-05-31T09:51:55.105Z,4.6
2019-05-31T10:08:45.964Z,4.6
2019-05-31T10:25:36.704Z,4.6
2019-05-31T10:42:26.143Z,4.6
2019-05-31T10:59:15.549Z,4.6
2019-05-31T11:16:05.659Z,4.6
2019-05-31T11:32:56.153Z,4.6
2019-05-31T11:49:47.392Z,4.6
2019-05-31T12:06:37.694Z,4.6
2019-05-31T12:23:28.001Z,4.6
2019-05-31T12:40:18.859Z,4.6
2019-05-31T12:57:09.758Z,4.6
2019-05-31T13:14:00.788Z,4.6
2019-05-31T13:30:57.867Z,4.6
2019-05-31T13:47:43.142Z,4.6
2019-05-31T14:04:34.234Z,4.6
2019-05-31T14:21:25.223Z,4.6
2019-05-31T14:38:16.367Z,4.6
2019-05-31T14:55:07.434Z,4.6
2019-05-31T15:12:00.562Z,4.6
2019-05-31T15:28:49.135Z,4.6
2019-05-31T15:45:40.087Z,4.6
2019-05-31T16:02:31.119Z,4.6
2019-05-31T16:19:22.019Z,4.5
2019-05-31T16:36:12.786Z,4.6
2019-05-31T16:53:04.881Z,4.5
2019-05-31T17:09:54.618Z,4.6
2019-05-31T17:26:45.534Z,4.5
2019-05-31T17:43:36.525Z,4.5
2019-05-31T18:00:27.217Z,4.5
2019-05-31T18:17:17.887Z,4.5
2019-05-31T18:34:08.676Z,4.5
2019-05-31T18:50:59.396Z,4.5
2019-05-31T19:07:50.072Z,4.4
2019-05-31T19:24:40.574Z,4.4
2019-05-31T19:41:31.258Z,4.4
2019-05-31T19:58:23.612Z,4.4
2019-05-31T20:15:12.059Z,4.3
2019-05-31T20:32:02.553Z,4.3
2019-05-31T20:48:52.747Z,4.3
2019-05-31T21:05:43.261Z,4.3
2019-05-31T21:22:33.270Z,4.2
2019-05-31T21:39:22.462Z,4.2
2019-05-31T21:56:11.623Z,4.2
2019-05-31T22:13:00.261Z,4.2
2019-05-31T22:29:48.826Z,4.2
2019-05-31T23:03:26.330Z,4.2
2019-05-31T23:20:15.160Z,4.2
2019-05-31T23:37:03.883Z,4.2
2019-05-31T23:53:52.578Z,4.1
